sensor_id;sensor_type;location;lat;lon;timestamp;P1;durP1;ratioP1;P2;durP2;ratioP2
23617;SDS011;18207;32.078;34.818;2023-10-19T00:00:16;1.55;;;1.45;;
23617;SDS011;18207;32.078;34.818;2023-10-19T00:02:50;1.55;;;1.45;;
23617;SDS011;18207;32.078;34.818;2023-10-19T00:05:20;1.63;;;1.50;;
23617;SDS011;18207;32.078;34.818;2023-10-19T00:07:53;1.70;;;1.60;;
23617;SDS011;18207;32.078;34.818;2023-10-19T00:10:24;1.60;;;1.50;;
23617;SDS011;18207;32.078;34.818;2023-10-19T00:12:57;1.98;;;1.70;;
23617;SDS011;18207;32.078;34.818;2023-10-19T00:15:28;1.58;;;1.48;;
23617;SDS011;18207;32.078;34.818;2023-10-19T00:18:01;1.75;;;1.65;;
23617;SDS011;18207;32.078;34.818;2023-10-19T00:20:47;1.70;;;1.60;;
23617;SDS011;18207;32.078;34.818;2023-10-19T00:23:20;1.70;;;1.60;;
23617;SDS011;18207;32.078;34.818;2023-10-19T00:25:56;3.95;;;1.55;;
23617;SDS011;18207;32.078;34.818;2023-10-19T00:28:25;1.70;;;1.60;;
23617;SDS011;18207;32.078;34.818;2023-10-19T00:30:57;2.58;;;1.80;;
23617;SDS011;18207;32.078;34.818;2023-10-19T00:33:31;2.00;;;1.67;;
23617;SDS011;18207;32.078;34.818;2023-10-19T00:36:00;2.22;;;1.77;;
23617;SDS011;18207;32.078;34.818;2023-10-19T00:38:34;1.67;;;1.58;;
23617;SDS011;18207;32.078;34.818;2023-10-19T00:41:18;2.92;;;1.80;;
23617;SDS011;18207;32.078;34.818;2023-10-19T00:43:51;1.95;;;1.85;;
23617;SDS011;18207;32.078;34.818;2023-10-19T00:46:27;1.95;;;1.85;;
23617;SDS011;18207;32.078;34.818;2023-10-19T00:49:00;1.92;;;1.83;;
23617;SDS011;18207;32.078;34.818;2023-10-19T00:51:34;2.05;;;1.90;;
23617;SDS011;18207;32.078;34.818;2023-10-19T00:54:23;2.00;;;1.90;;
23617;SDS011;18207;32.078;34.818;2023-10-19T00:57:00;1.83;;;1.73;;
23617;SDS011;18207;32.078;34.818;2023-10-19T00:59:36;1.80;;;1.70;;
23617;SDS011;18207;32.078;34.818;2023-10-19T01:02:11;1.77;;;1.67;;
23617;SDS011;18207;32.078;34.818;2023-10-19T01:04:47;1.73;;;1.63;;
23617;SDS011;18207;32.078;34.818;2023-10-19T01:07:23;1.60;;;1.50;;
23617;SDS011;18207;32.078;34.818;2023-10-19T01:09:57;1.58;;;1.48;;
23617;SDS011;18207;32.078;34.818;2023-10-19T01:12:32;3.10;;;1.60;;
23617;SDS011;18207;32.078;34.818;2023-10-19T01:15:07;1.70;;;1.60;;
23617;SDS011;18207;32.078;34.818;2023-10-19T01:17:44;1.60;;;1.50;;
23617;SDS011;18207;32.078;34.818;2023-10-19T01:20:20;1.75;;;1.65;;
23617;SDS011;18207;32.078;34.818;2023-10-19T01:23:03;1.67;;;1.58;;
23617;SDS011;18207;32.078;34.818;2023-10-19T01:25:43;1.95;;;1.60;;
23617;SDS011;18207;32.078;34.818;2023-10-19T01:28:17;1.70;;;1.60;;
23617;SDS011;18207;32.078;34.818;2023-10-19T01:30:52;1.70;;;1.60;;
23617;SDS011;18207;32.078;34.818;2023-10-19T01:33:22;1.67;;;1.58;;
23617;SDS011;18207;32.078;34.818;2023-10-19T01:35:51;1.55;;;1.45;;
23617;SDS011;18207;32.078;34.818;2023-10-19T01:38:46;1.50;;;1.40;;
23617;SDS011;18207;32.078;34.818;2023-10-19T01:41:16;1.95;;;1.70;;
23617;SDS011;18207;32.078;34.818;2023-10-19T01:43:46;1.80;;;1.70;;
23617;SDS011;18207;32.078;34.818;2023-10-19T01:46:17;1.75;;;1.60;;
23617;SDS011;18207;32.078;34.818;2023-10-19T01:48:52;1.98;;;1.80;;
23617;SDS011;18207;32.078;34.818;2023-10-19T01:51:23;1.45;;;1.38;;
23617;SDS011;18207;32.078;34.818;2023-10-19T01:53:55;1.85;;;1.75;;
23617;SDS011;18207;32.078;34.818;2023-10-19T01:56:28;1.58;;;1.48;;
23617;SDS011;18207;32.078;34.818;2023-10-19T01:58:56;1.90;;;1.80;;
23617;SDS011;18207;32.078;34.818;2023-10-19T02:01:26;2.08;;;1.88;;
23617;SDS011;18207;32.078;34.818;2023-10-19T02:04:00;1.58;;;1.48;;
23617;SDS011;18207;32.078;34.818;2023-10-19T02:06:33;2.15;;;2.00;;
23617;SDS011;18207;32.078;34.818;2023-10-19T02:09:06;2.08;;;1.88;;
23617;SDS011;18207;32.078;34.818;2023-10-19T02:11:45;2.03;;;1.92;;
23617;SDS011;18207;32.078;34.818;2023-10-19T02:14:15;2.00;;;1.83;;
23617;SDS011;18207;32.078;34.818;2023-10-19T02:16:47;2.10;;;1.90;;
23617;SDS011;18207;32.078;34.818;2023-10-19T02:19:21;2.17;;;2.00;;
23617;SDS011;18207;32.078;34.818;2023-10-19T02:21:54;2.17;;;1.98;;
23617;SDS011;18207;32.078;34.818;2023-10-19T02:24:27;2.30;;;2.00;;
23617;SDS011;18207;32.078;34.818;2023-10-19T02:26:56;2.17;;;1.98;;
23617;SDS011;18207;32.078;34.818;2023-10-19T02:29:28;2.30;;;2.10;;
23617;SDS011;18207;32.078;34.818;2023-10-19T02:31:57;2.72;;;2.40;;
23617;SDS011;18207;32.078;34.818;2023-10-19T02:34:31;2.80;;;2.58;;
23617;SDS011;18207;32.078;34.818;2023-10-19T02:37:01;3.08;;;2.58;;
23617;SDS011;18207;32.078;34.818;2023-10-19T02:39:33;3.03;;;2.47;;
23617;SDS011;18207;32.078;34.818;2023-10-19T02:42:02;2.72;;;2.40;;
23617;SDS011;18207;32.078;34.818;2023-10-19T02:44:31;2.63;;;2.38;;
23617;SDS011;18207;32.078;34.818;2023-10-19T02:47:01;3.80;;;2.63;;
23617;SDS011;18207;32.078;34.818;2023-10-19T02:49:36;2.85;;;2.53;;
23617;SDS011;18207;32.078;34.818;2023-10-19T02:52:06;3.20;;;2.42;;
23617;SDS011;18207;32.078;34.818;2023-10-19T02:54:42;3.15;;;2.42;;
23617;SDS011;18207;32.078;34.818;2023-10-19T02:57:12;3.35;;;2.58;;
23617;SDS011;18207;32.078;34.818;2023-10-19T02:59:41;4.00;;;2.63;;
23617;SDS011;18207;32.078;34.818;2023-10-19T03:02:11;2.92;;;2.60;;
23617;SDS011;18207;32.078;34.818;2023-10-19T03:04:44;2.47;;;2.28;;
23617;SDS011;18207;32.078;34.818;2023-10-19T03:07:15;2.70;;;2.45;;
23617;SDS011;18207;32.078;34.818;2023-10-19T03:09:47;2.97;;;2.35;;
23617;SDS011;18207;32.078;34.818;2023-10-19T03:12:20;2.70;;;2.40;;
23617;SDS011;18207;32.078;34.818;2023-10-19T03:14:52;2.65;;;2.28;;
23617;SDS011;18207;32.078;34.818;2023-10-19T03:17:22;2.60;;;2.20;;
23617;SDS011;18207;32.078;34.818;2023-10-19T03:19:51;2.55;;;2.33;;
23617;SDS011;18207;32.078;34.818;2023-10-19T03:22:22;2.20;;;2.00;;
23617;SDS011;18207;32.078;34.818;2023-10-19T03:24:56;2.47;;;2.25;;
23617;SDS011;18207;32.078;34.818;2023-10-19T03:27:41;2.40;;;2.03;;
23617;SDS011;18207;32.078;34.818;2023-10-19T03:30:11;2.17;;;1.98;;
23617;SDS011;18207;32.078;34.818;2023-10-19T03:32:46;2.22;;;2.03;;
23617;SDS011;18207;32.078;34.818;2023-10-19T03:35:16;2.40;;;2.20;;
23617;SDS011;18207;32.078;34.818;2023-10-19T03:37:47;2.45;;;2.20;;
23617;SDS011;18207;32.078;34.818;2023-10-19T03:40:20;2.25;;;2.05;;
23617;SDS011;18207;32.078;34.818;2023-10-19T03:42:56;2.40;;;2.20;;
23617;SDS011;18207;32.078;34.818;2023-10-19T03:45:26;2.40;;;2.20;;
23617;SDS011;18207;32.078;34.818;2023-10-19T03:48:00;2.70;;;2.50;;
23617;SDS011;18207;32.078;34.818;2023-10-19T03:50:35;2.40;;;2.20;;
23617;SDS011;18207;32.078;34.818;2023-10-19T03:53:05;2.58;;;2.15;;
23617;SDS011;18207;32.078;34.818;2023-10-19T03:55:40;2.47;;;2.28;;
23617;SDS011;18207;32.078;34.818;2023-10-19T03:58:11;3.33;;;2.30;;
23617;SDS011;18207;32.078;34.818;2023-10-19T04:00:41;2.80;;;2.30;;
23617;SDS011;18207;32.078;34.818;2023-10-19T04:03:12;2.35;;;2.15;;
23617;SDS011;18207;32.078;34.818;2023-10-19T04:05:41;2.42;;;2.22;;
23617;SDS011;18207;32.078;34.818;2023-10-19T04:08:13;2.40;;;2.10;;
23617;SDS011;18207;32.078;34.818;2023-10-19T04:10:49;3.13;;;2.60;;
23617;SDS011;18207;32.078;34.818;2023-10-19T04:13:32;3.78;;;2.50;;
23617;SDS011;18207;32.078;34.818;2023-10-19T04:16:02;3.15;;;2.35;;
23617;SDS011;18207;32.078;34.818;2023-10-19T04:18:35;2.80;;;2.40;;
23617;SDS011;18207;32.078;34.818;2023-10-19T04:21:10;3.65;;;2.35;;
23617;SDS011;18207;32.078;34.818;2023-10-19T04:23:40;5.10;;;2.28;;
23617;SDS011;18207;32.078;34.818;2023-10-19T04:26:16;2.20;;;2.00;;
23617;SDS011;18207;32.078;34.818;2023-10-19T04:28:46;2.53;;;2.03;;
23617;SDS011;18207;32.078;34.818;2023-10-19T04:31:19;2.70;;;2.50;;
23617;SDS011;18207;32.078;34.818;2023-10-19T04:33:50;1.83;;;1.73;;
23617;SDS011;18207;32.078;34.818;2023-10-19T04:36:21;2.00;;;1.88;;
23617;SDS011;18207;32.078;34.818;2023-10-19T04:38:52;2.08;;;1.98;;
23617;SDS011;18207;32.078;34.818;2023-10-19T04:41:24;2.28;;;2.08;;
23617;SDS011;18207;32.078;34.818;2023-10-19T04:43:56;2.78;;;2.00;;
23617;SDS011;18207;32.078;34.818;2023-10-19T04:46:30;2.10;;;1.90;;
23617;SDS011;18207;32.078;34.818;2023-10-19T04:49:04;2.13;;;1.90;;
23617;SDS011;18207;32.078;34.818;2023-10-19T04:51:34;4.00;;;1.95;;
23617;SDS011;18207;32.078;34.818;2023-10-19T04:54:05;2.45;;;1.85;;
23617;SDS011;18207;32.078;34.818;2023-10-19T04:56:37;2.25;;;1.88;;
23617;SDS011;18207;32.078;34.818;2023-10-19T04:59:06;1.98;;;1.77;;
23617;SDS011;18207;32.078;34.818;2023-10-19T05:01:36;1.88;;;1.65;;
23617;SDS011;18207;32.078;34.818;2023-10-19T05:04:08;1.75;;;1.65;;
23617;SDS011;18207;32.078;34.818;2023-10-19T05:06:39;1.50;;;1.40;;
23617;SDS011;18207;32.078;34.818;2023-10-19T05:09:14;1.90;;;1.80;;
23617;SDS011;18207;32.078;34.818;2023-10-19T05:11:47;1.60;;;1.50;;
23617;SDS011;18207;32.078;34.818;2023-10-19T05:14:20;1.63;;;1.52;;
23617;SDS011;18207;32.078;34.818;2023-10-19T05:16:50;1.83;;;1.50;;
23617;SDS011;18207;32.078;34.818;2023-10-19T05:19:26;1.55;;;1.45;;
23617;SDS011;18207;32.078;34.818;2023-10-19T05:22:06;1.60;;;1.30;;
23617;SDS011;18207;32.078;34.818;2023-10-19T05:25:00;1.60;;;1.50;;
23617;SDS011;18207;32.078;34.818;2023-10-19T05:27:39;2.17;;;1.45;;
23617;SDS011;18207;32.078;34.818;2023-10-19T05:30:13;2.25;;;1.63;;
23617;SDS011;18207;32.078;34.818;2023-10-19T05:32:43;1.90;;;1.60;;
23617;SDS011;18207;32.078;34.818;2023-10-19T05:35:13;2.92;;;1.50;;
23617;SDS011;18207;32.078;34.818;2023-10-19T05:37:49;1.58;;;1.48;;
23617;SDS011;18207;32.078;34.818;2023-10-19T05:40:19;1.83;;;1.73;;
23617;SDS011;18207;32.078;34.818;2023-10-19T05:42:52;1.83;;;1.63;;
23617;SDS011;18207;32.078;34.818;2023-10-19T05:45:26;2.22;;;1.80;;
23617;SDS011;18207;32.078;34.818;2023-10-19T05:47:57;1.80;;;1.65;;
23617;SDS011;18207;32.078;34.818;2023-10-19T05:50:27;2.33;;;1.80;;
23617;SDS011;18207;32.078;34.818;2023-10-19T05:52:59;1.80;;;1.70;;
23617;SDS011;18207;32.078;34.818;2023-10-19T05:55:29;1.73;;;1.60;;
23617;SDS011;18207;32.078;34.818;2023-10-19T05:58:05;1.75;;;1.65;;
23617;SDS011;18207;32.078;34.818;2023-10-19T06:00:36;2.25;;;1.65;;
23617;SDS011;18207;32.078;34.818;2023-10-19T06:03:06;1.67;;;1.58;;
23617;SDS011;18207;32.078;34.818;2023-10-19T06:05:37;1.75;;;1.65;;
23617;SDS011;18207;32.078;34.818;2023-10-19T06:08:06;1.83;;;1.73;;
23617;SDS011;18207;32.078;34.818;2023-10-19T06:10:36;1.88;;;1.60;;
23617;SDS011;18207;32.078;34.818;2023-10-19T06:13:08;2.10;;;1.85;;
23617;SDS011;18207;32.078;34.818;2023-10-19T06:15:41;1.80;;;1.70;;
23617;SDS011;18207;32.078;34.818;2023-10-19T06:18:14;2.00;;;1.90;;
23617;SDS011;18207;32.078;34.818;2023-10-19T06:20:45;1.90;;;1.67;;
23617;SDS011;18207;32.078;34.818;2023-10-19T06:23:18;2.08;;;1.90;;
23617;SDS011;18207;32.078;34.818;2023-10-19T06:25:51;1.70;;;1.60;;
23617;SDS011;18207;32.078;34.818;2023-10-19T06:28:22;1.98;;;1.77;;
23617;SDS011;18207;32.078;34.818;2023-10-19T06:30:52;2.10;;;1.75;;
23617;SDS011;18207;32.078;34.818;2023-10-19T06:33:22;1.98;;;1.88;;
23617;SDS011;18207;32.078;34.818;2023-10-19T06:35:53;1.77;;;1.60;;
23617;SDS011;18207;32.078;34.818;2023-10-19T06:38:23;3.55;;;1.90;;
23617;SDS011;18207;32.078;34.818;2023-10-19T06:40:53;1.95;;;1.77;;
23617;SDS011;18207;32.078;34.818;2023-10-19T06:43:25;2.38;;;2.17;;
23617;SDS011;18207;32.078;34.818;2023-10-19T06:45:59;1.95;;;1.80;;
23617;SDS011;18207;32.078;34.818;2023-10-19T06:48:29;1.83;;;1.73;;
23617;SDS011;18207;32.078;34.818;2023-10-19T06:50:59;2.03;;;1.77;;
23617;SDS011;18207;32.078;34.818;2023-10-19T06:53:29;1.92;;;1.70;;
23617;SDS011;18207;32.078;34.818;2023-10-19T06:56:00;2.20;;;2.00;;
23617;SDS011;18207;32.078;34.818;2023-10-19T06:58:33;3.03;;;1.80;;
23617;SDS011;18207;32.078;34.818;2023-10-19T07:01:06;2.15;;;1.95;;
23617;SDS011;18207;32.078;34.818;2023-10-19T07:03:38;2.20;;;1.92;;
23617;SDS011;18207;32.078;34.818;2023-10-19T07:06:08;2.30;;;2.10;;
23617;SDS011;18207;32.078;34.818;2023-10-19T07:08:40;2.08;;;1.90;;
23617;SDS011;18207;32.078;34.818;2023-10-19T07:11:11;2.53;;;1.98;;
23617;SDS011;18207;32.078;34.818;2023-10-19T07:13:42;2.47;;;1.95;;
23617;SDS011;18207;32.078;34.818;2023-10-19T07:16:12;2.47;;;2.05;;
23617;SDS011;18207;32.078;34.818;2023-10-19T07:18:44;2.60;;;2.40;;
23617;SDS011;18207;32.078;34.818;2023-10-19T07:21:17;3.22;;;2.70;;
23617;SDS011;18207;32.078;34.818;2023-10-19T07:23:48;2.42;;;2.22;;
23617;SDS011;18207;32.078;34.818;2023-10-19T07:26:19;2.17;;;1.98;;
23617;SDS011;18207;32.078;34.818;2023-10-19T07:29:00;2.15;;;1.98;;
23617;SDS011;18207;32.078;34.818;2023-10-19T07:31:31;1.88;;;1.77;;
23617;SDS011;18207;32.078;34.818;2023-10-19T07:34:01;1.60;;;1.50;;
23617;SDS011;18207;32.078;34.818;2023-10-19T07:36:32;2.05;;;1.80;;
23617;SDS011;18207;32.078;34.818;2023-10-19T07:39:04;1.92;;;1.63;;
23617;SDS011;18207;32.078;34.818;2023-10-19T07:41:43;1.52;;;1.42;;
23617;SDS011;18207;32.078;34.818;2023-10-19T07:44:18;1.70;;;1.60;;
23617;SDS011;18207;32.078;34.818;2023-10-19T07:46:48;2.03;;;1.83;;
23617;SDS011;18207;32.078;34.818;2023-10-19T07:49:18;1.88;;;1.60;;
23617;SDS011;18207;32.078;34.818;2023-10-19T07:51:48;1.90;;;1.70;;
23617;SDS011;18207;32.078;34.818;2023-10-19T07:54:18;1.80;;;1.70;;
23617;SDS011;18207;32.078;34.818;2023-10-19T07:56:49;2.10;;;1.70;;
23617;SDS011;18207;32.078;34.818;2023-10-19T07:59:20;2.75;;;1.80;;
23617;SDS011;18207;32.078;34.818;2023-10-19T08:01:50;1.58;;;1.48;;
23617;SDS011;18207;32.078;34.818;2023-10-19T08:04:20;1.70;;;1.60;;
23617;SDS011;18207;32.078;34.818;2023-10-19T08:06:52;1.80;;;1.67;;
23617;SDS011;18207;32.078;34.818;2023-10-19T08:09:22;1.70;;;1.60;;
23617;SDS011;18207;32.078;34.818;2023-10-19T08:11:58;1.42;;;1.33;;
23617;SDS011;18207;32.078;34.818;2023-10-19T08:14:34;1.38;;;1.27;;
23617;SDS011;18207;32.078;34.818;2023-10-19T08:17:05;1.73;;;1.63;;
23617;SDS011;18207;32.078;34.818;2023-10-19T08:19:36;1.90;;;1.70;;
23617;SDS011;18207;32.078;34.818;2023-10-19T08:22:05;1.65;;;1.40;;
23617;SDS011;18207;32.078;34.818;2023-10-19T08:24:36;1.60;;;1.50;;
23617;SDS011;18207;32.078;34.818;2023-10-19T08:27:12;1.40;;;1.30;;
23617;SDS011;18207;32.078;34.818;2023-10-19T08:29:44;1.58;;;1.40;;
23617;SDS011;18207;32.078;34.818;2023-10-19T08:32:15;1.75;;;1.38;;
23617;SDS011;18207;32.078;34.818;2023-10-19T08:34:45;1.45;;;1.35;;
23617;SDS011;18207;32.078;34.818;2023-10-19T08:37:16;1.33;;;1.27;;
23617;SDS011;18207;32.078;34.818;2023-10-19T08:39:49;1.45;;;1.35;;
23617;SDS011;18207;32.078;34.818;2023-10-19T08:42:19;1.83;;;1.42;;
23617;SDS011;18207;32.078;34.818;2023-10-19T08:44:51;1.63;;;1.30;;
23617;SDS011;18207;32.078;34.818;2023-10-19T08:47:21;1.40;;;1.30;;
23617;SDS011;18207;32.078;34.818;2023-10-19T08:49:53;1.30;;;1.20;;
23617;SDS011;18207;32.078;34.818;2023-10-19T08:52:23;1.50;;;1.40;;
23617;SDS011;18207;32.078;34.818;2023-10-19T08:55:00;1.33;;;1.23;;
23617;SDS011;18207;32.078;34.818;2023-10-19T08:57:31;1.65;;;1.55;;
23617;SDS011;18207;32.078;34.818;2023-10-19T09:00:06;1.45;;;1.35;;
23617;SDS011;18207;32.078;34.818;2023-10-19T09:02:37;1.92;;;1.65;;
23617;SDS011;18207;32.078;34.818;2023-10-19T09:05:07;2.10;;;1.90;;
23617;SDS011;18207;32.078;34.818;2023-10-19T09:07:46;1.55;;;1.45;;
23617;SDS011;18207;32.078;34.818;2023-10-19T09:10:21;1.60;;;1.50;;
23617;SDS011;18207;32.078;34.818;2023-10-19T09:12:58;1.65;;;1.55;;
23617;SDS011;18207;32.078;34.818;2023-10-19T09:15:32;1.58;;;1.48;;
23617;SDS011;18207;32.078;34.818;2023-10-19T09:18:11;1.60;;;1.50;;
23617;SDS011;18207;32.078;34.818;2023-10-19T09:20:43;1.13;;;1.10;;
23617;SDS011;18207;32.078;34.818;2023-10-19T09:23:21;1.35;;;1.25;;
23617;SDS011;18207;32.078;34.818;2023-10-19T09:25:52;1.10;;;1.10;;
23617;SDS011;18207;32.078;34.818;2023-10-19T09:28:23;1.35;;;1.25;;
23617;SDS011;18207;32.078;34.818;2023-10-19T09:30:56;1.25;;;1.10;;
23617;SDS011;18207;32.078;34.818;2023-10-19T09:33:27;1.25;;;1.15;;
23617;SDS011;18207;32.078;34.818;2023-10-19T09:36:01;1.45;;;1.30;;
23617;SDS011;18207;32.078;34.818;2023-10-19T09:38:43;1.13;;;1.02;;
23617;SDS011;18207;32.078;34.818;2023-10-19T09:41:17;1.05;;;0.98;;
23617;SDS011;18207;32.078;34.818;2023-10-19T09:43:49;1.40;;;1.30;;
23617;SDS011;18207;32.078;34.818;2023-10-19T09:46:23;0.95;;;0.95;;
23617;SDS011;18207;32.078;34.818;2023-10-19T09:49:02;3.67;;;0.98;;
23617;SDS011;18207;32.078;34.818;2023-10-19T09:51:36;1.15;;;1.02;;
23617;SDS011;18207;32.078;34.818;2023-10-19T09:54:32;1.20;;;1.10;;
23617;SDS011;18207;32.078;34.818;2023-10-19T09:57:18;1.27;;;1.17;;
23617;SDS011;18207;32.078;34.818;2023-10-19T10:00:00;0.90;;;0.90;;
23617;SDS011;18207;32.078;34.818;2023-10-19T10:02:42;1.20;;;1.10;;
23617;SDS011;18207;32.078;34.818;2023-10-19T10:05:44;0.80;;;0.80;;
23617;SDS011;18207;32.078;34.818;2023-10-19T10:08:29;0.88;;;0.82;;
23617;SDS011;18207;32.078;34.818;2023-10-19T10:11:13;0.90;;;0.75;;
23617;SDS011;18207;32.078;34.818;2023-10-19T10:13:46;1.50;;;1.30;;
23617;SDS011;18207;32.078;34.818;2023-10-19T10:16:23;1.05;;;1.05;;
23617;SDS011;18207;32.078;34.818;2023-10-19T10:18:58;0.93;;;0.93;;
23617;SDS011;18207;32.078;34.818;2023-10-19T10:21:29;1.02;;;0.93;;
23617;SDS011;18207;32.078;34.818;2023-10-19T10:24:03;0.98;;;0.98;;
23617;SDS011;18207;32.078;34.818;2023-10-19T10:29:27;1.35;;;1.23;;
23617;SDS011;18207;32.078;34.818;2023-10-19T10:31:58;1.02;;;1.00;;
23617;SDS011;18207;32.078;34.818;2023-10-19T10:34:46;1.00;;;1.00;;
23617;SDS011;18207;32.078;34.818;2023-10-19T10:37:16;0.80;;;0.80;;
23617;SDS011;18207;32.078;34.818;2023-10-19T10:39:47;0.80;;;0.80;;
23617;SDS011;18207;32.078;34.818;2023-10-19T10:42:17;0.95;;;0.95;;
23617;SDS011;18207;32.078;34.818;2023-10-19T10:44:47;1.60;;;1.30;;
23617;SDS011;18207;32.078;34.818;2023-10-19T10:47:20;0.77;;;0.77;;
23617;SDS011;18207;32.078;34.818;2023-10-19T10:49:54;1.02;;;0.93;;
23617;SDS011;18207;32.078;34.818;2023-10-19T10:52:26;1.10;;;1.00;;
23617;SDS011;18207;32.078;34.818;2023-10-19T10:55:00;1.10;;;1.00;;
23617;SDS011;18207;32.078;34.818;2023-10-19T10:57:39;1.30;;;1.20;;
23617;SDS011;18207;32.078;34.818;2023-10-19T11:00:13;1.23;;;0.93;;
23617;SDS011;18207;32.078;34.818;2023-10-19T11:02:45;1.02;;;1.02;;
23617;SDS011;18207;32.078;34.818;2023-10-19T11:05:29;1.30;;;1.05;;
23617;SDS011;18207;32.078;34.818;2023-10-19T11:08:07;0.80;;;0.80;;
23617;SDS011;18207;32.078;34.818;2023-10-19T11:10:41;1.00;;;1.00;;
23617;SDS011;18207;32.078;34.818;2023-10-19T11:13:13;0.80;;;0.80;;
23617;SDS011;18207;32.078;34.818;2023-10-19T11:15:48;1.10;;;1.00;;
23617;SDS011;18207;32.078;34.818;2023-10-19T11:18:27;1.10;;;1.10;;
23617;SDS011;18207;32.078;34.818;2023-10-19T11:21:01;1.00;;;1.00;;
23617;SDS011;18207;32.078;34.818;2023-10-19T11:23:37;1.15;;;1.08;;
23617;SDS011;18207;32.078;34.818;2023-10-19T11:26:09;1.45;;;1.15;;
23617;SDS011;18207;32.078;34.818;2023-10-19T11:28:40;1.10;;;1.00;;
23617;SDS011;18207;32.078;34.818;2023-10-19T11:31:17;1.33;;;1.10;;
23617;SDS011;18207;32.078;34.818;2023-10-19T11:33:49;1.25;;;1.10;;
23617;SDS011;18207;32.078;34.818;2023-10-19T11:36:24;1.15;;;1.15;;
23617;SDS011;18207;32.078;34.818;2023-10-19T11:38:54;0.98;;;0.90;;
23617;SDS011;18207;32.078;34.818;2023-10-19T11:41:24;0.82;;;0.82;;
23617;SDS011;18207;32.078;34.818;2023-10-19T11:43:54;1.10;;;1.00;;
23617;SDS011;18207;32.078;34.818;2023-10-19T11:46:25;0.93;;;0.93;;
23617;SDS011;18207;32.078;34.818;2023-10-19T11:48:56;0.90;;;0.90;;
23617;SDS011;18207;32.078;34.818;2023-10-19T11:54:13;0.90;;;0.90;;
23617;SDS011;18207;32.078;34.818;2023-10-19T11:56:45;0.70;;;0.70;;
23617;SDS011;18207;32.078;34.818;2023-10-19T11:59:16;2.55;;;1.10;;
23617;SDS011;18207;32.078;34.818;2023-10-19T12:01:46;1.00;;;1.00;;
23617;SDS011;18207;32.078;34.818;2023-10-19T12:04:16;1.15;;;1.02;;
23617;SDS011;18207;32.078;34.818;2023-10-19T12:06:48;2.35;;;1.02;;
23617;SDS011;18207;32.078;34.818;2023-10-19T12:09:18;1.35;;;1.25;;
23617;SDS011;18207;32.078;34.818;2023-10-19T12:11:51;1.05;;;1.00;;
23617;SDS011;18207;32.078;34.818;2023-10-19T12:14:22;0.80;;;0.80;;
23617;SDS011;18207;32.078;34.818;2023-10-19T12:16:52;1.20;;;1.10;;
23617;SDS011;18207;32.078;34.818;2023-10-19T12:19:24;0.70;;;0.70;;
23617;SDS011;18207;32.078;34.818;2023-10-19T12:21:59;1.10;;;1.10;;
23617;SDS011;18207;32.078;34.818;2023-10-19T12:24:30;0.98;;;0.75;;
23617;SDS011;18207;32.078;34.818;2023-10-19T12:27:00;0.80;;;0.80;;
23617;SDS011;18207;32.078;34.818;2023-10-19T12:29:30;0.77;;;0.77;;
23617;SDS011;18207;32.078;34.818;2023-10-19T12:32:00;0.80;;;0.80;;
23617;SDS011;18207;32.078;34.818;2023-10-19T12:34:30;0.90;;;0.90;;
23617;SDS011;18207;32.078;34.818;2023-10-19T12:37:01;0.75;;;0.75;;
23617;SDS011;18207;32.078;34.818;2023-10-19T12:39:31;0.80;;;0.80;;
23617;SDS011;18207;32.078;34.818;2023-10-19T12:42:09;0.70;;;0.70;;
23617;SDS011;18207;32.078;34.818;2023-10-19T12:44:41;0.80;;;0.80;;
23617;SDS011;18207;32.078;34.818;2023-10-19T12:47:14;0.80;;;0.80;;
23617;SDS011;18207;32.078;34.818;2023-10-19T12:49:44;1.08;;;1.00;;
23617;SDS011;18207;32.078;34.818;2023-10-19T12:52:17;1.05;;;0.95;;
23617;SDS011;18207;32.078;34.818;2023-10-19T12:54:46;0.95;;;0.90;;
23617;SDS011;18207;32.078;34.818;2023-10-19T12:57:18;1.17;;;1.08;;
23617;SDS011;18207;32.078;34.818;2023-10-19T12:59:51;1.13;;;1.02;;
23617;SDS011;18207;32.078;34.818;2023-10-19T13:02:21;0.82;;;0.82;;
23617;SDS011;18207;32.078;34.818;2023-10-19T13:04:51;0.80;;;0.80;;
23617;SDS011;18207;32.078;34.818;2023-10-19T13:07:23;0.85;;;0.80;;
23617;SDS011;18207;32.078;34.818;2023-10-19T13:09:56;0.70;;;0.70;;
23617;SDS011;18207;32.078;34.818;2023-10-19T13:12:29;1.55;;;1.00;;
23617;SDS011;18207;32.078;34.818;2023-10-19T13:15:01;1.02;;;0.77;;
23617;SDS011;18207;32.078;34.818;2023-10-19T13:17:34;1.25;;;0.80;;
23617;SDS011;18207;32.078;34.818;2023-10-19T13:20:05;1.20;;;0.95;;
23617;SDS011;18207;32.078;34.818;2023-10-19T13:22:46;1.05;;;1.00;;
23617;SDS011;18207;32.078;34.818;2023-10-19T13:25:16;1.00;;;0.90;;
23617;SDS011;18207;32.078;34.818;2023-10-19T13:27:55;1.00;;;0.80;;
23617;SDS011;18207;32.078;34.818;2023-10-19T13:30:25;0.70;;;0.70;;
23617;SDS011;18207;32.078;34.818;2023-10-19T13:32:55;1.20;;;1.00;;
23617;SDS011;18207;32.078;34.818;2023-10-19T13:35:25;1.00;;;0.77;;
23617;SDS011;18207;32.078;34.818;2023-10-19T13:37:56;1.10;;;1.00;;
23617;SDS011;18207;32.078;34.818;2023-10-19T13:40:26;1.40;;;1.10;;
23617;SDS011;18207;32.078;34.818;2023-10-19T13:42:58;0.68;;;0.68;;
23617;SDS011;18207;32.078;34.818;2023-10-19T13:45:29;0.70;;;0.70;;
23617;SDS011;18207;32.078;34.818;2023-10-19T13:48:06;0.77;;;0.77;;
23617;SDS011;18207;32.078;34.818;2023-10-19T13:50:41;0.75;;;0.75;;
23617;SDS011;18207;32.078;34.818;2023-10-19T13:53:17;0.75;;;0.75;;
23617;SDS011;18207;32.078;34.818;2023-10-19T13:55:48;0.90;;;0.90;;
23617;SDS011;18207;32.078;34.818;2023-10-19T13:58:18;0.80;;;0.80;;
23617;SDS011;18207;32.078;34.818;2023-10-19T14:00:51;0.70;;;0.70;;
23617;SDS011;18207;32.078;34.818;2023-10-19T14:03:21;5.18;;;0.80;;
23617;SDS011;18207;32.078;34.818;2023-10-19T14:05:51;1.15;;;0.85;;
23617;SDS011;18207;32.078;34.818;2023-10-19T14:08:24;0.70;;;0.70;;
23617;SDS011;18207;32.078;34.818;2023-10-19T14:11:00;0.75;;;0.75;;
23617;SDS011;18207;32.078;34.818;2023-10-19T14:13:31;0.80;;;0.80;;
23617;SDS011;18207;32.078;34.818;2023-10-19T14:16:04;1.08;;;0.95;;
23617;SDS011;18207;32.078;34.818;2023-10-19T14:18:49;1.10;;;0.95;;
23617;SDS011;18207;32.078;34.818;2023-10-19T14:21:18;1.77;;;1.20;;
23617;SDS011;18207;32.078;34.818;2023-10-19T14:23:52;1.15;;;0.70;;
23617;SDS011;18207;32.078;34.818;2023-10-19T14:26:22;1.95;;;1.10;;
23617;SDS011;18207;32.078;34.818;2023-10-19T14:28:53;0.80;;;0.77;;
23617;SDS011;18207;32.078;34.818;2023-10-19T14:31:24;0.90;;;0.90;;
23617;SDS011;18207;32.078;34.818;2023-10-19T14:33:58;0.90;;;0.90;;
23617;SDS011;18207;32.078;34.818;2023-10-19T14:36:42;1.00;;;0.70;;
23617;SDS011;18207;32.078;34.818;2023-10-19T14:39:14;1.30;;;1.10;;
23617;SDS011;18207;32.078;34.818;2023-10-19T14:41:48;0.70;;;0.70;;
23617;SDS011;18207;32.078;34.818;2023-10-19T14:44:22;1.10;;;1.00;;
23617;SDS011;18207;32.078;34.818;2023-10-19T14:46:59;1.02;;;1.00;;
23617;SDS011;18207;32.078;34.818;2023-10-19T14:49:33;1.45;;;1.02;;
23617;SDS011;18207;32.078;34.818;2023-10-19T14:52:05;0.90;;;0.80;;
23617;SDS011;18207;32.078;34.818;2023-10-19T14:54:40;1.30;;;0.95;;
23617;SDS011;18207;32.078;34.818;2023-10-19T14:57:10;1.20;;;1.10;;
23617;SDS011;18207;32.078;34.818;2023-10-19T14:59:40;0.90;;;0.85;;
23617;SDS011;18207;32.078;34.818;2023-10-19T15:02:10;0.90;;;0.90;;
23617;SDS011;18207;32.078;34.818;2023-10-19T15:04:41;1.73;;;1.63;;
23617;SDS011;18207;32.078;34.818;2023-10-19T15:07:10;1.80;;;1.70;;
23617;SDS011;18207;32.078;34.818;2023-10-19T15:09:42;1.73;;;1.63;;
23617;SDS011;18207;32.078;34.818;2023-10-19T15:12:15;1.80;;;1.70;;